sensor_id;sensor_type;location;lat;lon;timestamp;pressure;altitude;pressure_sealevel;temperature;humidity
30421;BME280;17218;54.070;10.012;2023-02-24T00:00:13;100843.47;;;4.09;100.00
30421;BME280;17218;54.070;10.012;2023-02-24T00:02:57;100838.47;;;4.16;100.00
30421;BME280;17218;54.070;10.012;2023-02-24T00:05:23;100833.50;;;4.24;100.00
30421;BME280;17218;54.070;10.012;2023-02-24T00:07:50;100827.69;;;4.33;100.00
30421;BME280;17218;54.070;10.012;2023-02-24T00:10:17;100828.31;;;4.20;100.00
30421;BME280;17218;54.070;10.012;2023-02-24T00:12:47;100823.22;;;4.21;100.00
30421;BME280;17218;54.070;10.012;2023-02-24T00:15:13;100818.13;;;4.24;100.00
30421;BME280;17218;54.070;10.012;2023-02-24T00:17:40;100810.34;;;4.20;100.00
30421;BME280;17218;54.070;10.012;2023-02-24T00:20:09;100809.25;;;4.08;100.00
30421;BME280;17218;54.070;10.012;2023-02-24T00:22:36;100808.03;;;3.90;100.00
30421;BME280;17218;54.070;10.012;2023-02-24T00:25:03;100804.38;;;3.79;100.00
30421;BME280;17218;54.070;10.012;2023-02-24T00:27:30;100796.38;;;3.65;100.00
30421;BME280;17218;54.070;10.012;2023-02-24T00:29:58;100800.44;;;3.55;100.00
30421;BME280;17218;54.070;10.012;2023-02-24T00:32:26;100793.81;;;3.65;100.00
30421;BME280;17218;54.070;10.012;2023-02-24T00:34:52;100798.41;;;3.78;100.00
30421;BME280;17218;54.070;10.012;2023-02-24T00:37:19;100783.91;;;3.80;100.00
30421;BME280;17218;54.070;10.012;2023-02-24T00:39:48;100786.44;;;3.79;100.00
30421;BME280;17218;54.070;10.012;2023-02-24T00:42:15;100786.59;;;3.87;100.00
30421;BME280;17218;54.070;10.012;2023-02-24T00:44:44;100774.75;;;3.92;100.00
30421;BME280;17218;54.070;10.012;2023-02-24T00:47:13;100766.44;;;4.04;100.00
30421;BME280;17218;54.070;10.012;2023-02-24T00:49:41;100768.06;;;3.99;100.00
30421;BME280;17218;54.070;10.012;2023-02-24T00:52:09;100771.88;;;3.76;100.00
30421;BME280;17218;54.070;10.012;2023-02-24T00:54:37;100756.63;;;3.83;100.00
30421;BME280;17218;54.070;10.012;2023-02-24T00:57:04;100757.44;;;3.81;100.00
30421;BME280;17218;54.070;10.012;2023-02-24T00:59:33;100742.97;;;3.84;100.00
30421;BME280;17218;54.070;10.012;2023-02-24T01:01:59;100747.97;;;3.77;100.00
30421;BME280;17218;54.070;10.012;2023-02-24T01:04:29;100746.38;;;3.83;100.00
30421;BME280;17218;54.070;10.012;2023-02-24T01:06:56;100741.06;;;3.73;100.00
30421;BME280;17218;54.070;10.012;2023-02-24T01:09:27;100735.47;;;3.51;100.00
30421;BME280;17218;54.070;10.012;2023-02-24T01:11:54;100738.97;;;3.55;100.00
30421;BME280;17218;54.070;10.012;2023-02-24T01:14:38;100730.19;;;3.43;100.00
30421;BME280;17218;54.070;10.012;2023-02-24T01:17:06;100722.66;;;3.51;100.00
30421;BME280;17218;54.070;10.012;2023-02-24T01:19:35;100716.88;;;3.60;100.00
30421;BME280;17218;54.070;10.012;2023-02-24T01:22:04;100718.69;;;3.64;100.00
30421;BME280;17218;54.070;10.012;2023-02-24T01:24:34;100720.22;;;3.57;100.00
30421;BME280;17218;54.070;10.012;2023-02-24T01:27:01;100711.84;;;3.66;100.00
30421;BME280;17218;54.070;10.012;2023-02-24T01:29:28;100706.75;;;3.66;100.00
30421;BME280;17218;54.070;10.012;2023-02-24T01:31:55;100710.16;;;3.65;100.00
30421;BME280;17218;54.070;10.012;2023-02-24T01:34:22;100701.72;;;3.71;100.00
30421;BME280;17218;54.070;10.012;2023-02-24T01:36:50;100693.06;;;3.64;100.00
30421;BME280;17218;54.070;10.012;2023-02-24T01:39:17;100689.66;;;3.65;100.00
30421;BME280;17218;54.070;10.012;2023-02-24T01:41:46;100688.81;;;3.66;100.00
30421;BME280;17218;54.070;10.012;2023-02-24T01:47:18;100670.72;;;3.58;100.00
30421;BME280;17218;54.070;10.012;2023-02-24T01:49:46;100668.31;;;3.66;100.00
30421;BME280;17218;54.070;10.012;2023-02-24T01:52:19;100661.50;;;3.67;100.00
30421;BME280;17218;54.070;10.012;2023-02-24T01:54:50;100669.88;;;3.58;100.00
30421;BME280;17218;54.070;10.012;2023-02-24T01:57:20;100653.31;;;3.42;100.00
30421;BME280;17218;54.070;10.012;2023-02-24T01:59:50;100655.94;;;3.45;100.00
30421;BME280;17218;54.070;10.012;2023-02-24T02:02:19;100650.41;;;3.26;100.00
30421;BME280;17218;54.070;10.012;2023-02-24T02:04:50;100643.66;;;3.30;100.00
30421;BME280;17218;54.070;10.012;2023-02-24T02:07:20;100642.56;;;3.18;100.00
30421;BME280;17218;54.070;10.012;2023-02-24T02:09:48;100644.31;;;3.19;100.00
30421;BME280;17218;54.070;10.012;2023-02-24T02:12:15;100632.34;;;3.20;100.00
30421;BME280;17218;54.070;10.012;2023-02-24T02:14:43;100630.00;;;3.29;100.00
30421;BME280;17218;54.070;10.012;2023-02-24T02:17:16;100630.88;;;3.30;100.00
30421;BME280;17218;54.070;10.012;2023-02-24T02:23:16;100627.50;;;3.31;100.00
30421;BME280;17218;54.070;10.012;2023-02-24T02:25:59;100614.53;;;3.23;100.00
30421;BME280;17218;54.070;10.012;2023-02-24T02:28:45;100619.00;;;3.33;100.00
30421;BME280;17218;54.070;10.012;2023-02-24T02:31:38;100598.69;;;3.43;100.00
30421;BME280;17218;54.070;10.012;2023-02-24T02:34:23;100612.22;;;3.37;100.00
30421;BME280;17218;54.070;10.012;2023-02-24T02:36:57;100603.66;;;3.35;100.00
30421;BME280;17218;54.070;10.012;2023-02-24T02:39:34;100593.56;;;3.43;100.00
30421;BME280;17218;54.070;10.012;2023-02-24T02:42:09;100591.03;;;3.44;100.00
30421;BME280;17218;54.070;10.012;2023-02-24T02:44:48;100580.78;;;3.44;100.00
30421;BME280;17218;54.070;10.012;2023-02-24T02:47:24;100581.44;;;3.34;100.00
30421;BME280;17218;54.070;10.012;2023-02-24T02:49:57;100560.94;;;3.32;100.00
30421;BME280;17218;54.070;10.012;2023-02-24T02:52:28;100576.38;;;3.37;100.00
30421;BME280;17218;54.070;10.012;2023-02-24T02:55:00;100571.88;;;3.24;100.00
30421;BME280;17218;54.070;10.012;2023-02-24T02:57:30;100554.81;;;3.26;100.00
30421;BME280;17218;54.070;10.012;2023-02-24T03:00:00;100544.72;;;3.32;100.00
30421;BME280;17218;54.070;10.012;2023-02-24T03:02:35;100549.69;;;3.26;100.00
30421;BME280;17218;54.070;10.012;2023-02-24T03:05:07;100553.69;;;3.11;100.00
30421;BME280;17218;54.070;10.012;2023-02-24T03:07:40;100539.25;;;3.16;100.00
30421;BME280;17218;54.070;10.012;2023-02-24T03:10:12;100535.91;;;3.19;100.00
30421;BME280;17218;54.070;10.012;2023-02-24T03:12:47;100525.13;;;3.34;100.00
30421;BME280;17218;54.070;10.012;2023-02-24T03:15:16;100516.75;;;3.43;100.00
30421;BME280;17218;54.070;10.012;2023-02-24T03:17:46;100520.91;;;3.38;100.00
30421;BME280;17218;54.070;10.012;2023-02-24T03:20:19;100513.09;;;3.31;100.00
30421;BME280;17218;54.070;10.012;2023-02-24T03:22:50;100499.50;;;3.34;100.00
30421;BME280;17218;54.070;10.012;2023-02-24T03:25:20;100505.16;;;3.16;100.00
30421;BME280;17218;54.070;10.012;2023-02-24T03:27:50;100500.63;;;3.04;100.00
30421;BME280;17218;54.070;10.012;2023-02-24T03:30:27;100486.94;;;3.02;100.00
30421;BME280;17218;54.070;10.012;2023-02-24T03:32:56;100491.31;;;3.07;100.00
30421;BME280;17218;54.070;10.012;2023-02-24T03:35:30;100484.59;;;3.13;100.00
30421;BME280;17218;54.070;10.012;2023-02-24T03:37:58;100486.53;;;3.25;100.00
30421;BME280;17218;54.070;10.012;2023-02-24T03:40:25;100477.97;;;3.22;100.00
30421;BME280;17218;54.070;10.012;2023-02-24T03:43:01;100473.00;;;3.30;100.00
30421;BME280;17218;54.070;10.012;2023-02-24T03:45:30;100461.78;;;3.24;100.00
30421;BME280;17218;54.070;10.012;2023-02-24T03:47:59;100458.91;;;3.06;100.00
30421;BME280;17218;54.070;10.012;2023-02-24T03:50:29;100458.91;;;3.08;100.00
30421;BME280;17218;54.070;10.012;2023-02-24T03:53:02;100452.13;;;3.10;100.00
30421;BME280;17218;54.070;10.012;2023-02-24T03:55:37;100439.22;;;3.04;100.00
30421;BME280;17218;54.070;10.012;2023-02-24T03:58:16;100433.34;;;3.09;100.00
30421;BME280;17218;54.070;10.012;2023-02-24T04:00:50;100425.97;;;3.25;100.00
30421;BME280;17218;54.070;10.012;2023-02-24T04:03:24;100430.03;;;3.15;100.00
30421;BME280;17218;54.070;10.012;2023-02-24T04:06:02;100418.25;;;3.24;100.00
30421;BME280;17218;54.070;10.012;2023-02-24T04:08:37;100412.34;;;3.28;100.00
30421;BME280;17218;54.070;10.012;2023-02-24T04:11:12;100400.25;;;3.19;100.00
30421;BME280;17218;54.070;10.012;2023-02-24T04:13:45;100406.56;;;2.90;100.00
30421;BME280;17218;54.070;10.012;2023-02-24T04:16:16;100400.44;;;2.83;100.00
30421;BME280;17218;54.070;10.012;2023-02-24T04:18:56;100385.84;;;2.78;100.00
30421;BME280;17218;54.070;10.012;2023-02-24T04:21:26;100379.81;;;2.74;100.00
30421;BME280;17218;54.070;10.012;2023-02-24T04:23:54;100369.78;;;2.85;100.00
30421;BME280;17218;54.070;10.012;2023-02-24T04:26:23;100362.94;;;2.84;100.00
30421;BME280;17218;54.070;10.012;2023-02-24T04:28:50;100359.78;;;2.97;100.00
30421;BME280;17218;54.070;10.012;2023-02-24T04:31:19;100361.50;;;2.98;100.00
30421;BME280;17218;54.070;10.012;2023-02-24T04:33:46;100350.28;;;2.90;100.00
30421;BME280;17218;54.070;10.012;2023-02-24T04:36:15;100349.59;;;3.02;100.00
30421;BME280;17218;54.070;10.012;2023-02-24T04:38:43;100334.19;;;2.97;100.00
30421;BME280;17218;54.070;10.012;2023-02-24T04:41:11;100330.63;;;2.89;100.00
30421;BME280;17218;54.070;10.012;2023-02-24T04:43:43;100319.63;;;2.93;100.00
30421;BME280;17218;54.070;10.012;2023-02-24T04:46:09;100318.56;;;2.83;100.00
30421;BME280;17218;54.070;10.012;2023-02-24T04:48:37;100315.03;;;2.75;100.00
30421;BME280;17218;54.070;10.012;2023-02-24T04:51:04;100396.16;;;2.81;100.00
30421;BME280;17218;54.070;10.012;2023-02-24T04:53:31;100393.72;;;2.89;100.00
30421;BME280;17218;54.070;10.012;2023-02-24T04:56:01;100381.03;;;2.95;100.00
30421;BME280;17218;54.070;10.012;2023-02-24T04:58:32;100384.41;;;2.92;100.00
30421;BME280;17218;54.070;10.012;2023-02-24T05:00:59;100372.47;;;2.93;100.00
30421;BME280;17218;54.070;10.012;2023-02-24T05:03:25;100382.50;;;2.80;100.00
30421;BME280;17218;54.070;10.012;2023-02-24T05:05:55;100384.13;;;2.77;100.00
30421;BME280;17218;54.070;10.012;2023-02-24T05:08:24;100386.81;;;2.83;100.00
30421;BME280;17218;54.070;10.012;2023-02-24T05:10:52;100380.81;;;2.82;100.00
30421;BME280;17218;54.070;10.012;2023-02-24T05:13:22;100397.28;;;2.95;100.00
30421;BME280;17218;54.070;10.012;2023-02-24T05:15:52;100384.47;;;2.95;100.00
30421;BME280;17218;54.070;10.012;2023-02-24T05:18:19;100415.06;;;2.89;100.00
30421;BME280;17218;54.070;10.012;2023-02-24T05:20:50;100421.56;;;2.71;100.00
30421;BME280;17218;54.070;10.012;2023-02-24T05:23:36;100454.66;;;2.65;100.00
30421;BME280;17218;54.070;10.012;2023-02-24T05:26:05;100481.69;;;2.54;100.00
30421;BME280;17218;54.070;10.012;2023-02-24T05:28:35;100510.41;;;2.40;100.00
30421;BME280;17218;54.070;10.012;2023-02-24T05:31:06;100512.97;;;2.40;100.00
30421;BME280;17218;54.070;10.012;2023-02-24T05:33:34;100512.09;;;2.40;100.00
30421;BME280;17218;54.070;10.012;2023-02-24T05:36:03;100522.97;;;2.31;100.00
30421;BME280;17218;54.070;10.012;2023-02-24T05:38:31;100504.59;;;2.47;100.00
30421;BME280;17218;54.070;10.012;2023-02-24T05:41:04;100502.81;;;2.45;100.00
30421;BME280;17218;54.070;10.012;2023-02-24T05:43:31;100516.34;;;2.39;100.00
30421;BME280;17218;54.070;10.012;2023-02-24T05:46:01;100513.88;;;2.42;100.00
30421;BME280;17218;54.070;10.012;2023-02-24T05:48:28;100500.00;;;2.32;100.00
30421;BME280;17218;54.070;10.012;2023-02-24T05:50:59;100504.94;;;2.24;100.00
30421;BME280;17218;54.070;10.012;2023-02-24T05:53:26;100521.09;;;2.23;100.00
30421;BME280;17218;54.070;10.012;2023-02-24T05:55:52;100515.06;;;2.20;100.00
30421;BME280;17218;54.070;10.012;2023-02-24T05:58:19;100506.75;;;2.30;100.00
30421;BME280;17218;54.070;10.012;2023-02-24T06:00:47;100513.69;;;2.34;100.00
30421;BME280;17218;54.070;10.012;2023-02-24T06:03:15;100499.09;;;2.30;100.00
30421;BME280;17218;54.070;10.012;2023-02-24T06:05:42;100487.00;;;2.23;100.00
30421;BME280;17218;54.070;10.012;2023-02-24T06:08:09;100486.81;;;2.15;100.00
30421;BME280;17218;54.070;10.012;2023-02-24T06:10:37;100496.19;;;2.14;100.00
30421;BME280;17218;54.070;10.012;2023-02-24T06:13:05;100497.00;;;2.13;100.00
30421;BME280;17218;54.070;10.012;2023-02-24T06:15:32;100492.09;;;2.21;100.00
30421;BME280;17218;54.070;10.012;2023-02-24T06:17:59;100490.66;;;2.33;100.00
30421;BME280;17218;54.070;10.012;2023-02-24T06:20:28;100485.41;;;2.28;100.00
30421;BME280;17218;54.070;10.012;2023-02-24T06:22:57;100486.72;;;2.10;100.00
30421;BME280;17218;54.070;10.012;2023-02-24T06:25:24;100487.50;;;2.08;100.00
30421;BME280;17218;54.070;10.012;2023-02-24T06:27:54;100478.34;;;2.16;100.00
30421;BME280;17218;54.070;10.012;2023-02-24T06:30:26;100480.31;;;2.30;100.00
30421;BME280;17218;54.070;10.012;2023-02-24T06:32:53;100479.50;;;2.31;100.00
30421;BME280;17218;54.070;10.012;2023-02-24T06:35:20;100454.69;;;2.25;100.00
30421;BME280;17218;54.070;10.012;2023-02-24T06:37:48;100442.59;;;2.18;100.00
30421;BME280;17218;54.070;10.012;2023-02-24T06:40:15;100439.16;;;2.17;100.00
30421;BME280;17218;54.070;10.012;2023-02-24T06:42:45;100445.19;;;2.21;100.00
30421;BME280;17218;54.070;10.012;2023-02-24T06:45:13;100432.41;;;2.21;100.00
30421;BME280;17218;54.070;10.012;2023-02-24T06:47:40;100432.94;;;2.06;100.00
30421;BME280;17218;54.070;10.012;2023-02-24T06:50:09;100426.06;;;2.01;100.00
30421;BME280;17218;54.070;10.012;2023-02-24T06:52:36;100427.97;;;2.12;100.00
30421;BME280;17218;54.070;10.012;2023-02-24T06:55:05;100436.34;;;2.05;100.00
30421;BME280;17218;54.070;10.012;2023-02-24T06:57:50;100431.34;;;2.11;100.00
30421;BME280;17218;54.070;10.012;2023-02-24T07:00:18;100430.56;;;2.13;100.00
30421;BME280;17218;54.070;10.012;2023-02-24T07:02:49;100427.06;;;2.10;100.00
30421;BME280;17218;54.070;10.012;2023-02-24T07:05:15;100425.25;;;2.04;100.00
30421;BME280;17218;54.070;10.012;2023-02-24T07:07:43;100425.97;;;1.98;100.00
30421;BME280;17218;54.070;10.012;2023-02-24T07:10:11;100416.56;;;1.96;100.00
30421;BME280;17218;54.070;10.012;2023-02-24T07:12:38;100414.81;;;1.95;100.00
30421;BME280;17218;54.070;10.012;2023-02-24T07:15:06;100414.72;;;1.90;100.00
30421;BME280;17218;54.070;10.012;2023-02-24T07:17:33;100413.28;;;2.01;100.00
30421;BME280;17218;54.070;10.012;2023-02-24T07:20:00;100426.75;;;1.94;100.00
30421;BME280;17218;54.070;10.012;2023-02-24T07:22:36;100427.50;;;1.90;100.00
30421;BME280;17218;54.070;10.012;2023-02-24T07:25:03;100416.16;;;1.78;100.00
30421;BME280;17218;54.070;10.012;2023-02-24T07:27:32;100423.16;;;1.87;100.00
30421;BME280;17218;54.070;10.012;2023-02-24T07:30:00;100403.59;;;1.88;100.00
30421;BME280;17218;54.070;10.012;2023-02-24T07:32:30;100411.22;;;1.86;100.00
30421;BME280;17218;54.070;10.012;2023-02-24T07:34:56;100409.66;;;1.93;100.00
30421;BME280;17218;54.070;10.012;2023-02-24T07:37:23;100408.84;;;1.94;100.00
30421;BME280;17218;54.070;10.012;2023-02-24T07:39:50;100400.09;;;1.84;100.00
30421;BME280;17218;54.070;10.012;2023-02-24T07:42:16;100392.50;;;1.87;100.00
30421;BME280;17218;54.070;10.012;2023-02-24T07:44:44;100394.41;;;1.96;100.00
30421;BME280;17218;54.070;10.012;2023-02-24T07:47:13;100405.25;;;1.86;100.00
30421;BME280;17218;54.070;10.012;2023-02-24T07:49:39;100379.44;;;1.73;100.00
30421;BME280;17218;54.070;10.012;2023-02-24T07:52:06;100396.50;;;1.76;100.00
30421;BME280;17218;54.070;10.012;2023-02-24T07:54:32;100387.38;;;1.86;100.00
30421;BME280;17218;54.070;10.012;2023-02-24T07:56:59;100387.19;;;1.78;100.00
30421;BME280;17218;54.070;10.012;2023-02-24T07:59:27;100381.09;;;1.73;100.00
30421;BME280;17218;54.070;10.012;2023-02-24T08:01:55;100370.13;;;1.75;100.00
30421;BME280;17218;54.070;10.012;2023-02-24T08:04:24;100366.03;;;1.84;100.00
30421;BME280;17218;54.070;10.012;2023-02-24T08:06:51;100357.31;;;1.74;100.00
30421;BME280;17218;54.070;10.012;2023-02-24T08:09:22;100339.34;;;1.71;100.00
30421;BME280;17218;54.070;10.012;2023-02-24T08:12:12;100324.72;;;1.63;100.00
30421;BME280;17218;54.070;10.012;2023-02-24T08:14:42;100321.13;;;1.55;100.00
30421;BME280;17218;54.070;10.012;2023-02-24T08:17:17;100339.34;;;1.71;100.00
30421;BME280;17218;54.070;10.012;2023-02-24T08:19:46;100324.13;;;1.75;100.00
30421;BME280;17218;54.070;10.012;2023-02-24T08:22:14;100317.28;;;1.74;100.00
30421;BME280;17218;54.070;10.012;2023-02-24T08:24:50;100317.88;;;1.62;100.00
30421;BME280;17218;54.070;10.012;2023-02-24T08:27:18;100325.44;;;1.58;100.00
30421;BME280;17218;54.070;10.012;2023-02-24T08:29:47;100318.03;;;1.70;100.00
30421;BME280;17218;54.070;10.012;2023-02-24T08:32:26;100307.19;;;1.79;100.00
30421;BME280;17218;54.070;10.012;2023-02-24T08:34:58;100305.56;;;1.83;100.00
30421;BME280;17218;54.070;10.012;2023-02-24T08:37:28;100308.22;;;1.89;100.00
30421;BME280;17218;54.070;10.012;2023-02-24T08:39:57;100296.31;;;1.88;100.00
30421;BME280;17218;54.070;10.012;2023-02-24T08:42:24;100295.50;;;1.90;100.00
30421;BME280;17218;54.070;10.012;2023-02-24T08:44:58;100286.06;;;1.86;100.00
30421;BME280;17218;54.070;10.012;2023-02-24T08:47:27;100297.94;;;1.84;100.00
30421;BME280;17218;54.070;10.012;2023-02-24T08:49:55;100301.34;;;1.85;100.00
30421;BME280;17218;54.070;10.012;2023-02-24T08:52:24;100297.97;;;1.86;100.00
30421;BME280;17218;54.070;10.012;2023-02-24T08:54:51;100288.34;;;1.74;100.00
30421;BME280;17218;54.070;10.012;2023-02-24T08:57:23;100284.97;;;1.76;100.00
30421;BME280;17218;54.070;10.012;2023-02-24T08:59:50;100284.19;;;1.77;100.00
30421;BME280;17218;54.070;10.012;2023-02-24T09:02:23;100276.56;;;1.81;100.00
30421;BME280;17218;54.070;10.012;2023-02-24T09:04:54;100282.72;;;1.90;100.00
30421;BME280;17218;54.070;10.012;2023-02-24T09:07:23;100285.47;;;2.00;100.00
30421;BME280;17218;54.070;10.012;2023-02-24T09:09:50;100274.03;;;1.82;100.00
30421;BME280;17218;54.070;10.012;2023-02-24T09:12:21;100260.44;;;1.83;100.00
30421;BME280;17218;54.070;10.012;2023-02-24T09:14:50;100263.97;;;1.88;100.00
30421;BME280;17218;54.070;10.012;2023-02-24T09:17:20;100256.41;;;1.95;100.00
30421;BME280;17218;54.070;10.012;2023-02-24T09:20:07;100246.19;;;1.95;100.00
30421;BME280;17218;54.070;10.012;2023-02-24T09:22:52;100251.25;;;1.92;100.00
30421;BME280;17218;54.070;10.012;2023-02-24T09:25:29;100251.53;;;2.07;100.00
30421;BME280;17218;54.070;10.012;2023-02-24T09:28:10;100257.69;;;2.17;100.00
30421;BME280;17218;54.070;10.012;2023-02-24T09:30:43;100229.41;;;2.08;100.00
30421;BME280;17218;54.070;10.012;2023-02-24T09:33:19;100236.47;;;2.20;100.00
30421;BME280;17218;54.070;10.012;2023-02-24T09:35:59;100241.75;;;2.29;100.00
30421;BME280;17218;54.070;10.012;2023-02-24T09:38:34;100233.47;;;2.43;100.00
30421;BME280;17218;54.070;10.012;2023-02-24T09:41:22;100227.53;;;2.44;100.00
30421;BME280;17218;54.070;10.012;2023-02-24T09:43:56;100227.78;;;2.59;100.00
30421;BME280;17218;54.070;10.012;2023-02-24T09:46:30;100221.19;;;2.72;100.00
30421;BME280;17218;54.070;10.012;2023-02-24T09:49:02;100220.56;;;2.88;100.00
30421;BME280;17218;54.070;10.012;2023-02-24T09:51:32;100181.19;;;2.78;100.00
30421;BME280;17218;54.070;10.012;2023-02-24T09:54:11;100183.09;;;2.90;100.00
30421;BME280;17218;54.070;10.012;2023-02-24T09:56:41;100168.00;;;3.08;100.00
30421;BME280;17218;54.070;10.012;2023-02-24T09:59:19;100151.66;;;3.00;100.00
30421;BME280;17218;54.070;10.012;2023-02-24T10:01:58;100139.75;;;3.01;100.00
30421;BME280;17218;54.070;10.012;2023-02-24T10:04:44;100141.66;;;3.14;100.00
30421;BME280;17218;54.070;10.012;2023-02-24T10:07:24;100140.03;;;3.21;100.00
30421;BME280;17218;54.070;10.012;2023-02-24T10:09:56;100139.47;;;3.44;100.00
30421;BME280;17218;54.070;10.012;2023-02-24T10:12:46;100142.50;;;3.86;100.00
30421;BME280;17218;54.070;10.012;2023-02-24T10:15:18;100116.69;;;3.67;100.00
30421;BME280;17218;54.070;10.012;2023-02-24T10:18:25;100101.63;;;3.97;100.00
30421;BME280;17218;54.070;10.012;2023-02-24T10:20:57;100072.72;;;4.15;100.00
30421;BME280;17218;54.070;10.012;2023-02-24T10:23:33;100031.09;;;4.49;100.00
30421;BME280;17218;54.070;10.012;2023-02-24T10:26:12;100005.41;;;4.45;100.00
30421;BME280;17218;54.070;10.012;2023-02-24T10:29:00;99971.19;;;4.41;100.00
30421;BME280;17218;54.070;10.012;2023-02-24T10:31:39;99989.13;;;4.36;100.00
30421;BME280;17218;54.070;10.012;2023-02-24T10:34:10;99984.00;;;4.39;100.00
30421;BME280;17218;54.070;10.012;2023-02-24T10:36:38;99991.66;;;4.35;100.00
30421;BME280;17218;54.070;10.012;2023-02-24T10:39:13;100001.06;;;4.36;100.00
30421;BME280;17218;54.070;10.012;2023-02-24T10:41:43;99989.94;;;4.34;100.00
30421;BME280;17218;54.070;10.012;2023-02-24T10:44:11;100003.69;;;4.45;100.00
30421;BME280;17218;54.070;10.012;2023-02-24T10:46:45;99998.63;;;4.56;100.00
30421;BME280;17218;54.070;10.012;2023-02-24T10:49:13;99981.63;;;4.77;100.00
30421;BME280;17218;54.070;10.012;2023-02-24T10:51:42;99967.09;;;4.81;100.00
30421;BME280;17218;54.070;10.012;2023-02-24T10:54:18;99939.75;;;4.89;100.00
30421;BME280;17218;54.070;10.012;2023-02-24T10:57:01;99915.88;;;5.37;100.00
30421;BME280;17218;54.070;10.012;2023-02-24T10:59:51;99906.44;;;6.00;100.00
30421;BME280;17218;54.070;10.012;2023-02-24T11:02:37;99824.97;;;6.18;100.00
30421;BME280;17218;54.070;10.012;2023-02-24T11:05:23;99678.50;;;5.94;100.00
30421;BME280;17218;54.070;10.012;2023-02-24T11:08:08;99642.56;;;5.85;100.00
30421;BME280;17218;54.070;10.012;2023-02-24T11:10:42;99654.56;;;5.84;100.00
30421;BME280;17218;54.070;10.012;2023-02-24T11:13:23;99670.94;;;5.65;100.00
30421;BME280;17218;54.070;10.012;2023-02-24T11:16:10;99691.44;;;5.76;100.00
30421;BME280;17218;54.070;10.012;2023-02-24T11:18:54;99705.06;;;5.96;100.00
30421;BME280;17218;54.070;10.012;2023-02-24T11:21:23;99715.03;;;6.53;100.00
30421;BME280;17218;54.070;10.012;2023-02-24T11:23:52;99663.63;;;6.48;100.00
30421;BME280;17218;54.070;10.012;2023-02-24T11:26:24;99619.84;;;6.53;100.00
30421;BME280;17218;54.070;10.012;2023-02-24T11:29:05;99578.50;;;6.70;100.00
30421;BME280;17218;54.070;10.012;2023-02-24T11:31:58;99578.72;;;7.30;100.00
30421;BME280;17218;54.070;10.012;2023-02-24T11:34:38;99559.81;;;7.31;100.00
30421;BME280;17218;54.070;10.012;2023-02-24T11:37:30;99543.28;;;7.48;100.00
30421;BME280;17218;54.070;10.012;2023-02-24T11:40:02;99543.94;;;7.61;100.00
30421;BME280;17218;54.070;10.012;2023-02-24T11:42:36;99530.41;;;8.55;100.00
30421;BME280;17218;54.070;10.012;2023-02-24T11:45:11;99531.84;;;9.58;100.00
30421;BME280;17218;54.070;10.012;2023-02-24T11:47:43;99501.25;;;10.79;100.00
30421;BME280;17218;54.070;10.012;2023-02-24T11:50:30;99494.25;;;11.41;100.00
30421;BME280;17218;54.070;10.012;2023-02-24T11:53:09;99488.84;;;11.19;100.00
30421;BME280;17218;54.070;10.012;2023-02-24T11:55:42;99480.56;;;10.77;100.00
30421;BME280;17218;54.070;10.012;2023-02-24T11:58:16;99481.22;;;10.54;100.00
30421;BME280;17218;54.070;10.012;2023-02-24T12:00:51;99487.59;;;9.70;100.00
30421;BME280;17218;54.070;10.012;2023-02-24T12:03:25;99481.69;;;8.86;100.00
30421;BME280;17218;54.070;10.012;2023-02-24T12:05:56;99487.25;;;8.64;100.00
30421;BME280;17218;54.070;10.012;2023-02-24T12:08:31;99481.13;;;8.69;100.00
30421;BME280;17218;54.070;10.012;2023-02-24T12:11:04;99472.63;;;10.83;100.00
30421;BME280;17218;54.070;10.012;2023-02-24T12:13:38;99464.34;;;13.32;100.00
30421;BME280;17218;54.070;10.012;2023-02-24T12:16:10;99448.91;;;15.14;100.00
30421;BME280;17218;54.070;10.012;2023-02-24T12:18:42;99450.06;;;17.16;100.00
30421;BME280;17218;54.070;10.012;2023-02-24T12:21:13;99438.16;;;18.19;100.00
30421;BME280;17218;54.070;10.012;2023-02-24T12:23:44;99423.59;;;19.42;100.00
30421;BME280;17218;54.070;10.012;2023-02-24T12:26:17;99428.91;;;17.52;100.00
30421;BME280;17218;54.070;10.012;2023-02-24T12:29:04;99422.63;;;16.91;100.00
30421;BME280;17218;54.070;10.012;2023-02-24T12:31:41;99424.16;;;15.03;100.00
30421;BME280;17218;54.070;10.012;2023-02-24T12:34:11;99424.75;;;13.03;100.00
30421;BME280;17218;54.070;10.012;2023-02-24T12:36:52;99417.22;;;11.72;100.00
30421;BME280;17218;54.070;10.012;2023-02-24T12:39:28;99410.03;;;11.53;100.00
30421;BME280;17218;54.070;10.012;2023-02-24T12:42:11;99409.69;;;11.08;100.00
30421;BME280;17218;54.070;10.012;2023-02-24T12:44:47;99413.09;;;10.52;100.00
30421;BME280;17218;54.070;10.012;2023-02-24T12:47:23;99399.91;;;10.28;100.00
30421;BME280;17218;54.070;10.012;2023-02-24T12:50:12;99398.25;;;10.87;100.00
30421;BME280;17218;54.070;10.012;2023-02-24T12:52:51;99397.00;;;9.73;100.00
30421;BME280;17218;54.070;10.012;2023-02-24T12:55:23;99403.16;;;8.94;100.00
30421;BME280;17218;54.070;10.012;2023-02-24T12:57:57;99411.38;;;8.71;100.00
30421;BME280;17218;54.070;10.012;2023-02-24T13:00:36;99438.84;;;7.79;100.00
30421;BME280;17218;54.070;10.012;2023-02-24T13:03:17;99435.41;;;7.24;100.00
30421;BME280;17218;54.070;10.012;2023-02-24T13:05:51;99436.19;;;7.28;100.00
30421;BME280;17218;54.070;10.012;2023-02-24T13:08:27;99430.81;;;7.44;100.00
30421;BME280;17218;54.070;10.012;2023-02-24T13:11:02;99432.19;;;7.67;100.00